Airfield :
LOGIN :

Register | Disclaimer

   EN    FR    IT 

 










Legend :    VFR   Marginal VFR   IFR   Intensive IFR   Very Intensive IFR
Visi :
Ceiling :
>= 8 km
>= 3000ft
5 to 8 km
1000 to 3000 ft
1500m to 5 km
500 to 1000 ft
800 to 1500m
200 to 500 ft
< 800m
< 200 ft
Symbols :   Thunderstorms  Fog  Heavy snow  Heavy precipitations  Wind > 20 kt
SIGMETs :     Misc.  Thunderstorms  Icing  Turbulence  Mountain Waves  Volcanic Ashes






- Airport Elevation : 302 ft
- IATA code : CGN


EDDK - Cologne Bonn

CURRENT METAR :
  • 291250Z VRB06KT CAVOK 23/03 Q1025 NOSIG

EXPIRED METARs :
  • 291220Z VRB06KT CAVOK 22/03 Q1026 NOSIG
  • 291150Z 05005KT 290V100 CAVOK 21/03 Q1026 TEMPO 05009KT
  • 291120Z VRB04KT CAVOK 22/02 Q1027 TEMPO 05009KT
  • 291050Z 06009KT 020V110 CAVOK 22/04 Q1027 NOSIG
  • 291020Z 12005KT 070V180 CAVOK 20/03 Q1027 NOSIG

TAF TAF EDDK
Valid from the 29 at 12:00 until the 30 at 18:00 UTC


291100Z 2912/3018 05008KT CAVOK
BECMG 2920/2924 11003KT
BECMG 3009/3012 08008KT



MET'MAP, your aeronautical weather chart ! - Copyright ORBIFLY December 2007 - Disclaimer

ORBIFLY MET'MAP TEAM :

Programming & Development : Alexandra Zaïnal
Concept & original design : Baudouin d'Aumeries
Assistance for programming : Marc-Olivier Méhu
Technical & hardware support : Manuel Goepfert

Contact : metmap@orbifly.com




SOURCES & CREDITS :

   NOAA